Haddonfield, New Jersey
Current Conditions -  °F | °C
As of 7:54 PM on Monday 22 Dec 2014 (Local Time) from KVAY Reporting Station
Light Rain Light Rain  
Wind Chill: 37°   Ceiling: 4300
Heat Index: 40°   Visibility: 4mi
Dew Point: 37°   Wind: 5mph
Humidity: 89%   Direction: 30°NNE
Pressure: 30.19"   Gusts: NA
Location:  39.9°N, 75.03°W
Report Text: KVAY 230054Z AUTO 03004KT 4SM -RA BR BKN043 OVC070 04/03 A3019 RMK AO2 RAE02B51 SLP224 P0001 T00440028
Loading
Personal Weather Stations






























Interactive Weather Map New forecast layout! Learn more

10-Day Weather Forecast

Advertisements
Track Severe Weather on mobile